sensor_id;sensor_type;location;lat;lon;timestamp;temperature;humidity
38910;DHT22;24676;51.360;12.354;2022-10-16T04:00:55;14.60;99.90
38910;DHT22;24676;51.360;12.354;2022-10-16T04:03:39;14.60;99.90
38910;DHT22;24676;51.360;12.354;2022-10-16T04:06:23;14.70;99.90
38910;DHT22;24676;51.360;12.354;2022-10-16T04:09:07;14.70;99.90
38910;DHT22;24676;51.360;12.354;2022-10-16T04:11:52;14.80;99.90
38910;DHT22;24676;51.360;12.354;2022-10-16T04:14:36;14.80;99.90
38910;DHT22;24676;51.360;12.354;2022-10-16T04:17:20;14.80;99.90
38910;DHT22;24676;51.360;12.354;2022-10-16T04:20:05;14.80;99.90
38910;DHT22;24676;51.360;12.354;2022-10-16T04:22:49;14.80;99.90
38910;DHT22;24676;51.360;12.354;2022-10-16T04:25:33;14.80;99.90
38910;DHT22;24676;51.360;12.354;2022-10-16T04:28:17;14.70;99.90
38910;DHT22;24676;51.360;12.354;2022-10-16T04:31:06;14.70;99.90
38910;DHT22;24676;51.360;12.354;2022-10-16T04:33:50;14.60;99.90
38910;DHT22;24676;51.360;12.354;2022-10-16T04:36:34;14.50;99.90
38910;DHT22;24676;51.360;12.354;2022-10-16T04:39:18;14.40;99.90
38910;DHT22;24676;51.360;12.354;2022-10-16T04:42:03;14.30;99.90
38910;DHT22;24676;51.360;12.354;2022-10-16T04:44:47;14.30;99.90
38910;DHT22;24676;51.360;12.354;2022-10-16T04:47:31;14.30;99.90
38910;DHT22;24676;51.360;12.354;2022-10-16T04:50:15;14.30;99.90
38910;DHT22;24676;51.360;12.354;2022-10-16T04:52:59;14.20;99.90
38910;DHT22;24676;51.360;12.354;2022-10-16T04:55:43;14.20;99.90
38910;DHT22;24676;51.360;12.354;2022-10-16T04:58:28;14.10;99.90
38910;DHT22;24676;51.360;12.354;2022-10-16T05:01:12;14.10;99.90
38910;DHT22;24676;51.360;12.354;2022-10-16T05:03:56;14.10;99.90
38910;DHT22;24676;51.360;12.354;2022-10-16T05:06:40;14.20;99.90
38910;DHT22;24676;51.360;12.354;2022-10-16T05:09:25;14.20;99.90
38910;DHT22;24676;51.360;12.354;2022-10-16T05:12:09;14.20;99.90
38910;DHT22;24676;51.360;12.354;2022-10-16T05:14:53;14.20;99.90
38910;DHT22;24676;51.360;12.354;2022-10-16T05:17:42;14.20;99.90
38910;DHT22;24676;51.360;12.354;2022-10-16T05:20:27;14.20;99.90
38910;DHT22;24676;51.360;12.354;2022-10-16T05:23:11;14.20;99.90
38910;DHT22;24676;51.360;12.354;2022-10-16T05:25:56;14.30;99.90
38910;DHT22;24676;51.360;12.354;2022-10-16T05:28:42;14.30;99.90
38910;DHT22;24676;51.360;12.354;2022-10-16T05:31:26;14.30;99.90
38910;DHT22;24676;51.360;12.354;2022-10-16T05:34:10;14.30;99.90
38910;DHT22;24676;51.360;12.354;2022-10-16T05:36:54;14.40;99.90
38910;DHT22;24676;51.360;12.354;2022-10-16T05:39:39;14.40;99.90
38910;DHT22;24676;51.360;12.354;2022-10-16T05:42:23;14.40;99.90
38910;DHT22;24676;51.360;12.354;2022-10-16T05:45:09;14.40;99.90
38910;DHT22;24676;51.360;12.354;2022-10-16T05:47:54;14.40;99.90
38910;DHT22;24676;51.360;12.354;2022-10-16T05:50:38;14.40;99.90
38910;DHT22;24676;51.360;12.354;2022-10-16T05:53:22;14.40;99.90
38910;DHT22;24676;51.360;12.354;2022-10-16T05:56:10;14.50;99.90
38910;DHT22;24676;51.360;12.354;2022-10-16T05:58:56;14.50;99.90
38910;DHT22;24676;51.360;12.354;2022-10-16T06:01:40;14.60;99.90
38910;DHT22;24676;51.360;12.354;2022-10-16T06:04:24;14.70;99.90
38910;DHT22;24676;51.360;12.354;2022-10-16T06:07:08;14.80;99.90
38910;DHT22;24676;51.360;12.354;2022-10-16T06:09:53;14.90;99.90
38910;DHT22;24676;51.360;12.354;2022-10-16T06:12:37;15.00;99.90
38910;DHT22;24676;51.360;12.354;2022-10-16T06:15:22;15.20;99.90
38910;DHT22;24676;51.360;12.354;2022-10-16T06:18:06;15.30;99.90
38910;DHT22;24676;51.360;12.354;2022-10-16T06:20:51;15.40;99.90
38910;DHT22;24676;51.360;12.354;2022-10-16T06:23:35;15.60;99.90
38910;DHT22;24676;51.360;12.354;2022-10-16T06:26:21;15.70;99.90
38910;DHT22;24676;51.360;12.354;2022-10-16T06:29:05;15.80;99.90
38910;DHT22;24676;51.360;12.354;2022-10-16T06:31:50;15.90;99.90
38910;DHT22;24676;51.360;12.354;2022-10-16T06:34:34;16.00;99.90
38910;DHT22;24676;51.360;12.354;2022-10-16T06:37:18;16.00;99.90
38910;DHT22;24676;51.360;12.354;2022-10-16T06:40:02;16.00;99.90
38910;DHT22;24676;51.360;12.354;2022-10-16T06:42:47;16.10;99.90
38910;DHT22;24676;51.360;12.354;2022-10-16T06:45:32;16.10;99.90
38910;DHT22;24676;51.360;12.354;2022-10-16T06:48:16;16.20;99.90
38910;DHT22;24676;51.360;12.354;2022-10-16T06:51:10;16.20;99.90
38910;DHT22;24676;51.360;12.354;2022-10-16T06:53:55;16.20;99.90
38910;DHT22;24676;51.360;12.354;2022-10-16T06:56:42;16.10;99.90
38910;DHT22;24676;51.360;12.354;2022-10-16T06:59:27;16.10;99.90
38910;DHT22;24676;51.360;12.354;2022-10-16T07:02:11;16.10;99.90
38910;DHT22;24676;51.360;12.354;2022-10-16T07:04:55;16.00;99.90
38910;DHT22;24676;51.360;12.354;2022-10-16T07:07:41;15.90;99.90
38910;DHT22;24676;51.360;12.354;2022-10-16T07:10:25;15.90;99.90
38910;DHT22;24676;51.360;12.354;2022-10-16T07:13:10;15.80;99.90
38910;DHT22;24676;51.360;12.354;2022-10-16T07:15:56;15.80;99.90
38910;DHT22;24676;51.360;12.354;2022-10-16T07:18:41;15.80;99.90
38910;DHT22;24676;51.360;12.354;2022-10-16T07:21:29;15.80;99.90
38910;DHT22;24676;51.360;12.354;2022-10-16T07:24:15;15.70;99.90
38910;DHT22;24676;51.360;12.354;2022-10-16T07:27:00;15.80;99.90
38910;DHT22;24676;51.360;12.354;2022-10-16T07:29:44;16.00;99.90
38910;DHT22;24676;51.360;12.354;2022-10-16T07:32:29;16.20;99.90
38910;DHT22;24676;51.360;12.354;2022-10-16T07:35:13;16.30;99.90
38910;DHT22;24676;51.360;12.354;2022-10-16T07:37:58;16.40;99.90
38910;DHT22;24676;51.360;12.354;2022-10-16T07:40:42;16.40;99.90
38910;DHT22;24676;51.360;12.354;2022-10-16T07:43:26;16.40;99.90
38910;DHT22;24676;51.360;12.354;2022-10-16T07:46:11;16.40;99.90
38910;DHT22;24676;51.360;12.354;2022-10-16T07:48:56;16.50;99.90
38910;DHT22;24676;51.360;12.354;2022-10-16T07:51:40;16.70;99.90
38910;DHT22;24676;51.360;12.354;2022-10-16T07:54:24;17.10;99.90
38910;DHT22;24676;51.360;12.354;2022-10-16T07:57:08;17.50;99.90
38910;DHT22;24676;51.360;12.354;2022-10-16T07:59:52;17.80;99.90
38910;DHT22;24676;51.360;12.354;2022-10-16T08:02:36;18.10;99.90
38910;DHT22;24676;51.360;12.354;2022-10-16T08:05:20;18.30;99.90
38910;DHT22;24676;51.360;12.354;2022-10-16T08:08:05;18.60;99.90
38910;DHT22;24676;51.360;12.354;2022-10-16T08:10:49;18.90;99.90
38910;DHT22;24676;51.360;12.354;2022-10-16T08:13:33;19.40;99.90
38910;DHT22;24676;51.360;12.354;2022-10-16T08:16:18;20.20;99.90
38910;DHT22;24676;51.360;12.354;2022-10-16T08:19:02;21.20;99.90
38910;DHT22;24676;51.360;12.354;2022-10-16T08:21:47;22.00;99.90
38910;DHT22;24676;51.360;12.354;2022-10-16T08:24:31;22.70;99.90
38910;DHT22;24676;51.360;12.354;2022-10-16T08:27:16;23.40;99.90
38910;DHT22;24676;51.360;12.354;2022-10-16T08:30:00;23.40;98.20
38910;DHT22;24676;51.360;12.354;2022-10-16T08:32:45;22.80;99.90
38910;DHT22;24676;51.360;12.354;2022-10-16T08:35:29;22.00;99.90
38910;DHT22;24676;51.360;12.354;2022-10-16T08:38:13;21.50;99.90
38910;DHT22;24676;51.360;12.354;2022-10-16T08:44:03;21.20;99.90
38910;DHT22;24676;51.360;12.354;2022-10-16T08:47:09;21.30;99.90
38910;DHT22;24676;51.360;12.354;2022-10-16T08:50:08;21.20;99.90
38910;DHT22;24676;51.360;12.354;2022-10-16T08:52:53;21.00;99.90
38910;DHT22;24676;51.360;12.354;2022-10-16T08:55:51;20.80;99.90
38910;DHT22;24676;51.360;12.354;2022-10-16T08:58:35;20.80;99.90
38910;DHT22;24676;51.360;12.354;2022-10-16T09:01:21;20.90;99.90
38910;DHT22;24676;51.360;12.354;2022-10-16T09:07:16;21.20;99.90
38910;DHT22;24676;51.360;12.354;2022-10-16T09:13:26;21.70;99.90
38910;DHT22;24676;51.360;12.354;2022-10-16T09:16:18;22.60;99.90
38910;DHT22;24676;51.360;12.354;2022-10-16T09:21:52;23.20;99.90
38910;DHT22;24676;51.360;12.354;2022-10-16T09:24:37;23.30;99.70
38910;DHT22;24676;51.360;12.354;2022-10-16T09:27:22;23.30;96.50
38910;DHT22;24676;51.360;12.354;2022-10-16T09:30:15;23.00;97.10
38910;DHT22;24676;51.360;12.354;2022-10-16T09:33:00;22.70;98.30
38910;DHT22;24676;51.360;12.354;2022-10-16T09:38:34;22.50;99.40
38910;DHT22;24676;51.360;12.354;2022-10-16T09:41:20;22.40;99.90
38910;DHT22;24676;51.360;12.354;2022-10-16T09:44:18;22.70;99.90
38910;DHT22;24676;51.360;12.354;2022-10-16T09:47:14;24.00;96.50
38910;DHT22;24676;51.360;12.354;2022-10-16T09:50:00;24.80;94.10
38910;DHT22;24676;51.360;12.354;2022-10-16T09:52:49;25.20;86.80
38910;DHT22;24676;51.360;12.354;2022-10-16T09:55:34;24.50;87.20
38910;DHT22;24676;51.360;12.354;2022-10-16T09:58:20;24.20;90.50
38910;DHT22;24676;51.360;12.354;2022-10-16T10:01:05;23.90;91.00
38910;DHT22;24676;51.360;12.354;2022-10-16T10:03:50;23.60;91.80
38910;DHT22;24676;51.360;12.354;2022-10-16T10:06:41;23.00;94.20
38910;DHT22;24676;51.360;12.354;2022-10-16T10:09:34;22.60;98.00
38910;DHT22;24676;51.360;12.354;2022-10-16T10:12:25;22.50;99.90
38910;DHT22;24676;51.360;12.354;2022-10-16T10:15:13;22.60;99.40
38910;DHT22;24676;51.360;12.354;2022-10-16T10:18:14;22.50;99.90
38910;DHT22;24676;51.360;12.354;2022-10-16T10:21:01;22.60;99.90
38910;DHT22;24676;51.360;12.354;2022-10-16T10:23:54;22.60;99.50
38910;DHT22;24676;51.360;12.354;2022-10-16T10:26:38;22.50;99.90
38910;DHT22;24676;51.360;12.354;2022-10-16T10:32:43;22.10;99.90
38910;DHT22;24676;51.360;12.354;2022-10-16T10:35:49;21.80;99.90
38910;DHT22;24676;51.360;12.354;2022-10-16T10:38:51;21.50;99.90
38910;DHT22;24676;51.360;12.354;2022-10-16T10:51:05;21.10;99.90
38910;DHT22;24676;51.360;12.354;2022-10-16T10:54:20;21.10;99.90
38910;DHT22;24676;51.360;12.354;2022-10-16T11:00:49;21.20;99.90
38910;DHT22;24676;51.360;12.354;2022-10-16T11:04:44;21.20;99.90
38910;DHT22;24676;51.360;12.354;2022-10-16T11:06:59;21.10;99.90
38910;DHT22;24676;51.360;12.354;2022-10-16T11:09:53;21.10;99.90
38910;DHT22;24676;51.360;12.354;2022-10-16T11:12:47;21.30;99.90
38910;DHT22;24676;51.360;12.354;2022-10-16T11:15:37;21.30;99.90
38910;DHT22;24676;51.360;12.354;2022-10-16T11:18:30;21.40;99.90
38910;DHT22;24676;51.360;12.354;2022-10-16T11:21:19;21.30;99.90
38910;DHT22;24676;51.360;12.354;2022-10-16T11:24:24;21.20;99.90
38910;DHT22;24676;51.360;12.354;2022-10-16T11:27:19;21.20;99.90
38910;DHT22;24676;51.360;12.354;2022-10-16T11:30:12;21.30;99.90
38910;DHT22;24676;51.360;12.354;2022-10-16T11:36:04;21.40;99.90
38910;DHT22;24676;51.360;12.354;2022-10-16T11:41:58;21.70;99.90
38910;DHT22;24676;51.360;12.354;2022-10-16T11:47:43;21.70;99.90
38910;DHT22;24676;51.360;12.354;2022-10-16T11:51:06;21.70;99.90
38910;DHT22;24676;51.360;12.354;2022-10-16T11:53:53;21.70;99.90
38910;DHT22;24676;51.360;12.354;2022-10-16T11:56:39;21.60;99.90
38910;DHT22;24676;51.360;12.354;2022-10-16T12:08:43;21.20;99.90
38910;DHT22;24676;51.360;12.354;2022-10-16T12:17:04;21.20;99.90
38910;DHT22;24676;51.360;12.354;2022-10-16T12:23:05;21.40;99.90
38910;DHT22;24676;51.360;12.354;2022-10-16T12:25:55;21.50;99.90
38910;DHT22;24676;51.360;12.354;2022-10-16T12:28:41;21.60;99.90
38910;DHT22;24676;51.360;12.354;2022-10-16T12:31:37;21.50;99.90
38910;DHT22;24676;51.360;12.354;2022-10-16T12:34:29;21.40;99.90
38910;DHT22;24676;51.360;12.354;2022-10-16T12:37:22;21.30;99.90
38910;DHT22;24676;51.360;12.354;2022-10-16T12:40:28;21.10;99.90
38910;DHT22;24676;51.360;12.354;2022-10-16T12:48:53;21.50;99.90
38910;DHT22;24676;51.360;12.354;2022-10-16T12:51:37;21.70;99.90
38910;DHT22;24676;51.360;12.354;2022-10-16T12:54:38;21.60;99.90
38910;DHT22;24676;51.360;12.354;2022-10-16T13:00:26;21.30;99.90
38910;DHT22;24676;51.360;12.354;2022-10-16T13:06:36;21.20;99.90
38910;DHT22;24676;51.360;12.354;2022-10-16T13:09:48;21.30;99.90
38910;DHT22;24676;51.360;12.354;2022-10-16T13:13:09;21.30;99.90
38910;DHT22;24676;51.360;12.354;2022-10-16T13:25:33;21.40;99.90
38910;DHT22;24676;51.360;12.354;2022-10-16T13:28:27;21.60;99.90
38910;DHT22;24676;51.360;12.354;2022-10-16T13:31:23;21.70;99.90
38910;DHT22;24676;51.360;12.354;2022-10-16T13:34:14;21.80;99.90
38910;DHT22;24676;51.360;12.354;2022-10-16T13:36:59;21.70;99.90
38910;DHT22;24676;51.360;12.354;2022-10-16T13:39:43;21.60;99.90
38910;DHT22;24676;51.360;12.354;2022-10-16T13:42:28;21.50;99.90
38910;DHT22;24676;51.360;12.354;2022-10-16T13:45:25;21.50;99.90
38910;DHT22;24676;51.360;12.354;2022-10-16T13:48:10;21.50;99.90
38910;DHT22;24676;51.360;12.354;2022-10-16T13:50:59;21.50;99.90
38910;DHT22;24676;51.360;12.354;2022-10-16T13:53:45;21.40;99.90
38910;DHT22;24676;51.360;12.354;2022-10-16T13:56:32;21.20;99.90
38910;DHT22;24676;51.360;12.354;2022-10-16T13:59:27;21.00;99.90
38910;DHT22;24676;51.360;12.354;2022-10-16T14:02:28;21.00;99.90
38910;DHT22;24676;51.360;12.354;2022-10-16T14:05:15;21.00;99.90
38910;DHT22;24676;51.360;12.354;2022-10-16T14:07:59;20.90;99.90
38910;DHT22;24676;51.360;12.354;2022-10-16T14:10:52;20.90;99.90
38910;DHT22;24676;51.360;12.354;2022-10-16T14:13:44;20.80;99.90
38910;DHT22;24676;51.360;12.354;2022-10-16T14:16:31;20.70;99.90
38910;DHT22;24676;51.360;12.354;2022-10-16T14:19:22;20.60;99.90
38910;DHT22;24676;51.360;12.354;2022-10-16T14:22:38;20.50;99.90
38910;DHT22;24676;51.360;12.354;2022-10-16T14:25:29;20.50;99.90
38910;DHT22;24676;51.360;12.354;2022-10-16T14:28:22;20.40;99.90
38910;DHT22;24676;51.360;12.354;2022-10-16T14:34:03;20.40;99.90
38910;DHT22;24676;51.360;12.354;2022-10-16T14:36:48;20.50;99.90
38910;DHT22;24676;51.360;12.354;2022-10-16T14:39:32;20.60;99.90
38910;DHT22;24676;51.360;12.354;2022-10-16T14:42:19;20.60;99.90
38910;DHT22;24676;51.360;12.354;2022-10-16T14:45:09;20.60;99.90
38910;DHT22;24676;51.360;12.354;2022-10-16T14:48:00;20.50;99.90
38910;DHT22;24676;51.360;12.354;2022-10-16T14:50:48;20.50;99.90
38910;DHT22;24676;51.360;12.354;2022-10-16T14:53:32;20.40;99.90
38910;DHT22;24676;51.360;12.354;2022-10-16T14:56:19;20.40;99.90
38910;DHT22;24676;51.360;12.354;2022-10-16T14:59:03;20.20;99.90
38910;DHT22;24676;51.360;12.354;2022-10-16T15:01:48;20.10;99.90
38910;DHT22;24676;51.360;12.354;2022-10-16T15:04:33;20.00;99.90
38910;DHT22;24676;51.360;12.354;2022-10-16T15:07:17;19.90;99.90
38910;DHT22;24676;51.360;12.354;2022-10-16T15:10:02;19.80;99.90
38910;DHT22;24676;51.360;12.354;2022-10-16T15:12:47;19.70;99.90
38910;DHT22;24676;51.360;12.354;2022-10-16T15:15:37;19.60;99.90
38910;DHT22;24676;51.360;12.354;2022-10-16T15:18:21;19.60;99.90
38910;DHT22;24676;51.360;12.354;2022-10-16T15:21:06;19.50;99.90
38910;DHT22;24676;51.360;12.354;2022-10-16T15:23:50;19.40;99.90
38910;DHT22;24676;51.360;12.354;2022-10-16T15:26:37;19.30;99.90
38910;DHT22;24676;51.360;12.354;2022-10-16T15:29:24;19.20;99.90
38910;DHT22;24676;51.360;12.354;2022-10-16T15:32:10;19.10;99.90
38910;DHT22;24676;51.360;12.354;2022-10-16T15:34:54;19.00;99.90
38910;DHT22;24676;51.360;12.354;2022-10-16T15:37:39;18.90;99.90
38910;DHT22;24676;51.360;12.354;2022-10-16T15:40:23;18.80;99.90
38910;DHT22;24676;51.360;12.354;2022-10-16T15:43:07;18.80;99.90
38910;DHT22;24676;51.360;12.354;2022-10-16T15:46:06;18.80;99.90
38910;DHT22;24676;51.360;12.354;2022-10-16T15:48:51;18.80;99.90
38910;DHT22;24676;51.360;12.354;2022-10-16T15:51:40;18.80;99.90
38910;DHT22;24676;51.360;12.354;2022-10-16T15:54:24;18.90;99.90
38910;DHT22;24676;51.360;12.354;2022-10-16T15:57:09;18.90;99.90
38910;DHT22;24676;51.360;12.354;2022-10-16T15:59:53;18.90;99.90
38910;DHT22;24676;51.360;12.354;2022-10-16T16:02:38;18.90;99.90
38910;DHT22;24676;51.360;12.354;2022-10-16T16:05:23;18.90;99.90
38910;DHT22;24676;51.360;12.354;2022-10-16T16:08:07;18.90;99.90
38910;DHT22;24676;51.360;12.354;2022-10-16T16:11:12;18.80;99.90
38910;DHT22;24676;51.360;12.354;2022-10-16T16:13:57;18.70;99.90
38910;DHT22;24676;51.360;12.354;2022-10-16T16:16:41;18.60;99.90
38910;DHT22;24676;51.360;12.354;2022-10-16T16:19:26;18.60;99.90
38910;DHT22;24676;51.360;12.354;2022-10-16T16:22:13;18.50;99.90
38910;DHT22;24676;51.360;12.354;2022-10-16T16:24:58;18.50;99.90
38910;DHT22;24676;51.360;12.354;2022-10-16T16:27:42;18.40;99.90
38910;DHT22;24676;51.360;12.354;2022-10-16T16:30:27;18.30;99.90
38910;DHT22;24676;51.360;12.354;2022-10-16T16:33:11;18.20;99.90
38910;DHT22;24676;51.360;12.354;2022-10-16T16:35:59;18.10;99.90
38910;DHT22;24676;51.360;12.354;2022-10-16T16:38:45;18.00;99.90
38910;DHT22;24676;51.360;12.354;2022-10-16T16:41:30;17.90;99.90
38910;DHT22;24676;51.360;12.354;2022-10-16T16:44:15;17.80;99.90
38910;DHT22;24676;51.360;12.354;2022-10-16T16:47:00;17.80;99.90
38910;DHT22;24676;51.360;12.354;2022-10-16T16:49:44;17.70;99.90
38910;DHT22;24676;51.360;12.354;2022-10-16T16:52:30;17.60;99.90
38910;DHT22;24676;51.360;12.354;2022-10-16T16:55:14;17.50;99.90
38910;DHT22;24676;51.360;12.354;2022-10-16T16:57:59;17.40;99.90
38910;DHT22;24676;51.360;12.354;2022-10-16T17:00:47;17.30;99.90
38910;DHT22;24676;51.360;12.354;2022-10-16T17:03:33;17.20;99.90
38910;DHT22;24676;51.360;12.354;2022-10-16T17:06:20;17.10;99.90
38910;DHT22;24676;51.360;12.354;2022-10-16T17:09:06;17.10;99.90
38910;DHT22;24676;51.360;12.354;2022-10-16T17:11:51;17.00;99.90
38910;DHT22;24676;51.360;12.354;2022-10-16T17:14:35;17.00;99.90
38910;DHT22;24676;51.360;12.354;2022-10-16T17:17:19;17.00;99.90
38910;DHT22;24676;51.360;12.354;2022-10-16T17:20:04;17.10;99.90
38910;DHT22;24676;51.360;12.354;2022-10-16T17:22:48;17.00;99.90
38910;DHT22;24676;51.360;12.354;2022-10-16T17:25:35;17.10;99.90
38910;DHT22;24676;51.360;12.354;2022-10-16T17:28:19;17.10;99.90
38910;DHT22;24676;51.360;12.354;2022-10-16T17:33:52;17.10;99.90
38910;DHT22;24676;51.360;12.354;2022-10-16T17:36:37;17.10;99.90
38910;DHT22;24676;51.360;12.354;2022-10-16T17:39:21;17.20;99.90
38910;DHT22;24676;51.360;12.354;2022-10-16T17:42:06;17.10;99.90
38910;DHT22;24676;51.360;12.354;2022-10-16T17:44:50;17.20;99.90
38910;DHT22;24676;51.360;12.354;2022-10-16T17:47:34;17.20;99.90
38910;DHT22;24676;51.360;12.354;2022-10-16T17:50:18;17.20;99.90
38910;DHT22;24676;51.360;12.354;2022-10-16T17:53:03;17.20;99.90
38910;DHT22;24676;51.360;12.354;2022-10-16T17:55:47;17.10;99.90
38910;DHT22;24676;51.360;12.354;2022-10-16T17:58:31;17.10;99.90
38910;DHT22;24676;51.360;12.354;2022-10-16T18:01:18;17.10;99.90
38910;DHT22;24676;51.360;12.354;2022-10-16T18:04:09;17.00;99.90
38910;DHT22;24676;51.360;12.354;2022-10-16T18:06:53;17.00;99.90
38910;DHT22;24676;51.360;12.354;2022-10-16T18:09:41;17.00;99.90
38910;DHT22;24676;51.360;12.354;2022-10-16T18:12:24;17.00;99.90
38910;DHT22;24676;51.360;12.354;2022-10-16T18:15:09;16.90;99.90
38910;DHT22;24676;51.360;12.354;2022-10-16T18:17:53;16.90;99.90
38910;DHT22;24676;51.360;12.354;2022-10-16T18:20:38;16.90;99.90
38910;DHT22;24676;51.360;12.354;2022-10-16T18:23:22;16.80;99.90
38910;DHT22;24676;51.360;12.354;2022-10-16T18:26:09;16.80;99.90
38910;DHT22;24676;51.360;12.354;2022-10-16T18:28:55;16.80;99.90
38910;DHT22;24676;51.360;12.354;2022-10-16T18:31:40;16.70;99.90
38910;DHT22;24676;51.360;12.354;2022-10-16T18:34:24;16.70;99.90
38910;DHT22;24676;51.360;12.354;2022-10-16T18:37:10;16.70;99.90
38910;DHT22;24676;51.360;12.354;2022-10-16T18:39:55;16.70;99.90
38910;DHT22;24676;51.360;12.354;2022-10-16T18:42:39;16.70;99.90
38910;DHT22;24676;51.360;12.354;2022-10-16T18:45:24;16.70;99.90
38910;DHT22;24676;51.360;12.354;2022-10-16T18:48:08;16.80;99.90
38910;DHT22;24676;51.360;12.354;2022-10-16T18:50:52;16.80;99.90
38910;DHT22;24676;51.360;12.354;2022-10-16T18:53:37;16.90;99.90
38910;DHT22;24676;51.360;12.354;2022-10-16T18:56:23;16.90;99.90
38910;DHT22;24676;51.360;12.354;2022-10-16T18:59:08;16.90;99.90
38910;DHT22;24676;51.360;12.354;2022-10-16T19:01:52;16.90;99.90
38910;DHT22;24676;51.360;12.354;2022-10-16T19:04:36;16.90;99.90
38910;DHT22;24676;51.360;12.354;2022-10-16T19:07:20;17.00;99.90
38910;DHT22;24676;51.360;12.354;2022-10-16T19:10:05;17.00;99.90
38910;DHT22;24676;51.360;12.354;2022-10-16T19:12:49;17.00;99.90
38910;DHT22;24676;51.360;12.354;2022-10-16T19:15:33;17.00;99.90
38910;DHT22;24676;51.360;12.354;2022-10-16T19:18:18;17.00;99.90
38910;DHT22;24676;51.360;12.354;2022-10-16T19:21:04;17.00;99.90
38910;DHT22;24676;51.360;12.354;2022-10-16T19:23:53;16.90;99.90
38910;DHT22;24676;51.360;12.354;2022-10-16T19:26:37;16.90;99.90
38910;DHT22;24676;51.360;12.354;2022-10-16T19:29:21;17.00;99.90
38910;DHT22;24676;51.360;12.354;2022-10-16T19:32:05;17.00;99.90
38910;DHT22;24676;51.360;12.354;2022-10-16T19:34:50;17.00;99.90
38910;DHT22;24676;51.360;12.354;2022-10-16T19:37:35;16.90;99.90
38910;DHT22;24676;51.360;12.354;2022-10-16T19:40:19;16.90;99.90
38910;DHT22;24676;51.360;12.354;2022-10-16T19:43:03;16.90;99.90
38910;DHT22;24676;51.360;12.354;2022-10-16T19:45:47;16.90;99.90
38910;DHT22;24676;51.360;12.354;2022-10-16T19:48:32;16.90;99.90
38910;DHT22;24676;51.360;12.354;2022-10-16T19:51:17;16.90;99.90
38910;DHT22;24676;51.360;12.354;2022-10-16T19:54:09;16.90;99.90
38910;DHT22;24676;51.360;12.354;2022-10-16T19:56:54;17.00;99.90
38910;DHT22;24676;51.360;12.354;2022-10-16T19:59:41;16.90;99.90
38910;DHT22;24676;51.360;12.354;2022-10-16T20:02:26;16.90;99.90
38910;DHT22;24676;51.360;12.354;2022-10-16T20:05:10;16.90;99.90
38910;DHT22;24676;51.360;12.354;2022-10-16T20:07:54;16.90;99.90
38910;DHT22;24676;51.360;12.354;2022-10-16T20:10:50;16.90;99.90
38910;DHT22;24676;51.360;12.354;2022-10-16T20:13:34;16.80;99.90
38910;DHT22;24676;51.360;12.354;2022-10-16T20:16:18;16.70;99.90
38910;DHT22;24676;51.360;12.354;2022-10-16T20:19:03;16.70;99.90
38910;DHT22;24676;51.360;12.354;2022-10-16T20:21:47;16.60;99.90
38910;DHT22;24676;51.360;12.354;2022-10-16T20:24:31;16.50;99.90
38910;DHT22;24676;51.360;12.354;2022-10-16T20:27:16;16.40;99.90
38910;DHT22;24676;51.360;12.354;2022-10-16T20:30:00;16.30;99.90
38910;DHT22;24676;51.360;12.354;2022-10-16T20:32:44;16.30;99.90
38910;DHT22;24676;51.360;12.354;2022-10-16T20:35:34;16.20;99.90
38910;DHT22;24676;51.360;12.354;2022-10-16T20:38:19;16.20;99.90
38910;DHT22;24676;51.360;12.354;2022-10-16T20:41:03;16.20;99.90
38910;DHT22;24676;51.360;12.354;2022-10-16T20:43:48;16.20;99.90
38910;DHT22;24676;51.360;12.354;2022-10-16T20:46:33;16.20;99.90
38910;DHT22;24676;51.360;12.354;2022-10-16T20:49:17;16.10;99.90
38910;DHT22;24676;51.360;12.354;2022-10-16T20:52:01;16.10;99.90
38910;DHT22;24676;51.360;12.354;2022-10-16T20:54:45;16.10;99.90
38910;DHT22;24676;51.360;12.354;2022-10-16T20:57:29;16.10;99.90
